createdAt,value
2022-10-17T00:01:01.220Z,11.18
2022-10-17T00:03:35.021Z,11.24
2022-10-17T00:06:07.307Z,11.27
2022-10-17T00:08:34.285Z,11.19
2022-10-17T00:11:06.073Z,11.15
2022-10-17T00:16:06.016Z,11.12
2022-10-17T00:18:35.350Z,11.08
2022-10-17T00:21:02.497Z,11.10
2022-10-17T00:23:30.522Z,11.05
2022-10-17T00:26:02.108Z,11.02
2022-10-17T00:28:32.186Z,11.00
2022-10-17T00:31:02.468Z,11.02
2022-10-17T00:33:31.081Z,10.99
2022-10-17T00:36:16.549Z,10.96
2022-10-17T00:38:45.747Z,10.94
2022-10-17T00:41:15.952Z,10.86
2022-10-17T00:44:01.654Z,10.83
2022-10-17T00:46:36.657Z,10.81
2022-10-17T00:49:12.645Z,10.80
2022-10-17T00:51:58.804Z,10.84
2022-10-17T00:54:31.721Z,10.84
2022-10-17T00:56:59.669Z,10.79
2022-10-17T00:59:28.666Z,10.81
2022-10-17T01:02:25.999Z,10.78
2022-10-17T01:04:56.541Z,10.84
2022-10-17T01:07:26.285Z,10.74
2022-10-17T01:09:53.452Z,10.69
2022-10-17T01:12:23.333Z,10.64
2022-10-17T01:14:58.677Z,10.63
2022-10-17T01:17:52.565Z,10.67
2022-10-17T01:21:00.155Z,10.71
2022-10-17T01:23:41.292Z,10.67
2022-10-17T01:26:25.538Z,10.70
2022-10-17T01:29:17.104Z,10.67
2022-10-17T01:32:00.476Z,10.62
2022-10-17T01:34:37.558Z,10.63
2022-10-17T01:37:32.861Z,10.61
2022-10-17T01:40:12.212Z,10.59
2022-10-17T01:42:48.762Z,10.60
2022-10-17T01:45:34.545Z,10.53
2022-10-17T01:48:09.068Z,10.41
2022-10-17T01:50:41.896Z,10.31
2022-10-17T01:53:14.781Z,10.32
2022-10-17T01:55:49.690Z,10.37
2022-10-17T01:58:31.670Z,10.39
2022-10-17T02:01:03.006Z,10.37
2022-10-17T02:03:35.434Z,10.40
2022-10-17T02:06:06.678Z,10.37
2022-10-17T02:08:44.694Z,10.27
2022-10-17T02:11:23.813Z,10.34
2022-10-17T02:14:14.826Z,10.41
2022-10-17T02:16:53.229Z,10.37
2022-10-17T02:19:50.668Z,10.37
2022-10-17T02:22:58.749Z,10.39
2022-10-17T02:25:31.816Z,10.39
2022-10-17T02:28:08.284Z,10.37
2022-10-17T02:30:53.341Z,10.31
2022-10-17T02:33:49.998Z,10.39
2022-10-17T02:36:26.544Z,10.39
2022-10-17T02:38:55.232Z,10.42
2022-10-17T02:41:24.419Z,10.39
2022-10-17T02:43:58.804Z,10.32
2022-10-17T02:46:30.350Z,10.34
2022-10-17T02:49:05.859Z,10.29
2022-10-17T02:51:37.341Z,10.25
2022-10-17T02:54:29.162Z,10.26
2022-10-17T02:57:02.936Z,10.31
2022-10-17T03:02:06.295Z,10.19
2022-10-17T03:04:34.580Z,10.16
2022-10-17T03:07:03.844Z,10.25
2022-10-17T03:09:30.935Z,10.20
2022-10-17T03:11:58.083Z,10.18
2022-10-17T03:14:25.857Z,10.14
2022-10-17T03:16:53.010Z,10.15
2022-10-17T03:19:20.668Z,10.09
2022-10-17T03:21:48.319Z,10.05
2022-10-17T03:24:15.594Z,9.97
2022-10-17T03:26:42.712Z,9.93
2022-10-17T03:29:12.274Z,9.89
2022-10-17T03:31:39.489Z,9.98
2022-10-17T03:34:07.927Z,9.93
2022-10-17T03:36:34.982Z,9.90
2022-10-17T03:39:02.441Z,9.86
2022-10-17T03:41:29.756Z,9.80
2022-10-17T03:43:56.836Z,9.81
2022-10-17T03:46:24.477Z,9.90
2022-10-17T03:48:52.180Z,9.98
2022-10-17T03:51:20.534Z,9.94
2022-10-17T03:53:52.634Z,9.92
2022-10-17T03:56:24.459Z,9.85
2022-10-17T03:58:59.700Z,9.84
2022-10-17T04:01:28.088Z,9.92
2022-10-17T04:03:57.591Z,9.91
2022-10-17T04:06:27.614Z,9.90
2022-10-17T04:08:57.048Z,9.88
2022-10-17T04:11:59.081Z,9.98
2022-10-17T04:14:26.454Z,10.04
2022-10-17T04:16:54.746Z,10.06
2022-10-17T04:19:22.288Z,10.10
2022-10-17T04:21:50.148Z,10.12
2022-10-17T04:24:18.021Z,10.05
2022-10-17T04:26:58.548Z,10.11
2022-10-17T04:29:29.973Z,10.08
2022-10-17T04:32:15.207Z,10.03
2022-10-17T04:34:49.358Z,10.05
2022-10-17T04:37:17.297Z,10.08
2022-10-17T04:39:46.291Z,10.06
2022-10-17T04:42:13.238Z,10.08
2022-10-17T04:44:40.940Z,10.04
2022-10-17T04:47:08.632Z,10.04
2022-10-17T04:49:36.007Z,10.01
2022-10-17T04:52:09.260Z,10.01
2022-10-17T04:54:44.429Z,9.94
2022-10-17T04:57:14.309Z,9.94
2022-10-17T04:59:48.611Z,9.90
2022-10-17T05:02:35.868Z,9.89
2022-10-17T05:05:04.321Z,9.88
2022-10-17T05:07:31.197Z,9.83
2022-10-17T05:10:10.915Z,9.79
2022-10-17T05:12:39.801Z,9.79
2022-10-17T05:15:07.981Z,9.78
2022-10-17T05:17:35.171Z,9.82
2022-10-17T05:20:02.702Z,9.77
2022-10-17T05:22:31.983Z,9.71
2022-10-17T05:24:59.976Z,9.73
2022-10-17T05:27:27.025Z,9.75
2022-10-17T05:29:54.115Z,9.70
2022-10-17T05:32:27.354Z,9.72
2022-10-17T05:34:57.445Z,9.71
2022-10-17T05:37:25.787Z,9.71
2022-10-17T05:39:55.712Z,9.73
2022-10-17T05:42:23.182Z,9.73
2022-10-17T05:44:50.563Z,9.72
2022-10-17T05:47:19.872Z,9.80
2022-10-17T05:49:51.548Z,9.83
2022-10-17T05:52:24.222Z,9.88
2022-10-17T05:55:12.624Z,9.91
2022-10-17T05:57:40.152Z,9.94
2022-10-17T06:00:12.762Z,9.97
2022-10-17T06:02:48.935Z,10.02
2022-10-17T06:05:18.633Z,10.13
2022-10-17T06:07:47.257Z,10.34
2022-10-17T06:10:16.571Z,10.56
2022-10-17T06:12:44.817Z,10.62
2022-10-17T06:15:12.518Z,11.00
2022-10-17T06:17:42.945Z,11.63
2022-10-17T06:20:10.408Z,11.88
2022-10-17T06:22:37.841Z,12.10
2022-10-17T06:25:10.363Z,11.91
2022-10-17T06:27:37.357Z,12.09
2022-10-17T06:30:08.016Z,12.85
2022-10-17T06:32:34.930Z,12.77
2022-10-17T06:35:02.057Z,13.23
2022-10-17T06:37:36.541Z,14.67
2022-10-17T06:40:09.194Z,16.11
2022-10-17T06:42:41.632Z,17.36
2022-10-17T06:45:24.510Z,18.25
2022-10-17T06:48:12.845Z,18.79
2022-10-17T06:50:44.406Z,19.33
2022-10-17T06:53:15.752Z,19.76
2022-10-17T06:56:03.236Z,20.30
2022-10-17T06:58:59.080Z,20.78
2022-10-17T07:01:32.125Z,21.13
2022-10-17T07:04:00.796Z,21.29
2022-10-17T07:06:29.586Z,21.31
2022-10-17T07:09:01.052Z,21.52
2022-10-17T07:11:28.351Z,22.02
2022-10-17T07:13:55.303Z,22.40
2022-10-17T07:16:22.759Z,22.06
2022-10-17T07:19:01.107Z,22.13
2022-10-17T07:21:36.558Z,22.55
2022-10-17T07:24:09.267Z,22.60
2022-10-17T07:26:36.946Z,22.86
2022-10-17T07:29:06.466Z,22.95
2022-10-17T07:31:54.045Z,23.46
2022-10-17T07:34:21.175Z,23.74
2022-10-17T07:36:49.694Z,24.28
2022-10-17T07:39:16.854Z,23.41
2022-10-17T07:41:45.809Z,23.59
2022-10-17T07:44:15.483Z,23.00
2022-10-17T07:46:47.989Z,23.12
2022-10-17T07:49:15.732Z,22.89
2022-10-17T07:54:17.439Z,22.56
2022-10-17T07:56:50.443Z,22.10
2022-10-17T07:59:20.569Z,22.52
2022-10-17T08:01:50.197Z,22.42
2022-10-17T08:04:17.550Z,22.29
2022-10-17T08:06:44.776Z,22.17
2022-10-17T08:09:11.674Z,22.12
2022-10-17T08:11:43.995Z,21.62
2022-10-17T08:14:14.158Z,21.04
2022-10-17T08:16:43.778Z,20.71
2022-10-17T08:19:13.423Z,19.93
2022-10-17T08:21:41.448Z,19.43
2022-10-17T08:24:08.808Z,19.13
2022-10-17T08:26:42.337Z,18.82
2022-10-17T08:29:16.129Z,18.91
2022-10-17T08:31:47.846Z,19.08
2022-10-17T08:34:18.136Z,19.00
2022-10-17T08:36:45.341Z,19.40
2022-10-17T08:39:12.336Z,19.57
2022-10-17T08:41:54.497Z,19.70
2022-10-17T08:44:38.384Z,19.31
2022-10-17T08:47:11.931Z,19.28
2022-10-17T08:50:01.250Z,19.38
2022-10-17T08:52:47.586Z,19.23
2022-10-17T08:55:40.083Z,19.02
2022-10-17T08:58:14.674Z,19.24
2022-10-17T09:00:50.554Z,19.28
2022-10-17T09:03:32.673Z,19.67
2022-10-17T09:06:19.733Z,19.52
2022-10-17T09:09:08.166Z,19.59
2022-10-17T09:12:04.152Z,19.64
2022-10-17T09:15:03.997Z,20.05
2022-10-17T09:17:41.691Z,19.94
2022-10-17T09:20:15.097Z,20.09
2022-10-17T09:22:52.315Z,19.98
2022-10-17T09:25:21.093Z,20.07
2022-10-17T09:27:52.542Z,20.08
2022-10-17T09:30:44.148Z,20.40
2022-10-17T09:33:23.363Z,20.33
2022-10-17T09:36:05.173Z,20.39
2022-10-17T09:38:40.516Z,20.50
2022-10-17T09:41:42.795Z,20.35
2022-10-17T09:44:20.379Z,20.22
2022-10-17T09:47:11.034Z,20.33
2022-10-17T09:49:45.658Z,20.22
2022-10-17T09:52:18.729Z,20.42
2022-10-17T09:54:48.162Z,20.62
2022-10-17T09:57:19.338Z,20.68
2022-10-17T09:59:55.809Z,20.95
2022-10-17T10:02:24.951Z,20.83
2022-10-17T10:05:09.791Z,20.69
2022-10-17T10:07:39.758Z,20.93
2022-10-17T10:10:23.467Z,20.84
2022-10-17T10:13:06.780Z,20.70
2022-10-17T10:15:37.927Z,20.90
2022-10-17T10:18:27.850Z,20.74
2022-10-17T10:21:26.035Z,20.81
2022-10-17T10:24:15.585Z,20.81
2022-10-17T10:26:54.438Z,21.00
2022-10-17T10:29:25.226Z,20.89
2022-10-17T10:31:53.504Z,20.87
2022-10-17T10:34:28.982Z,20.80
2022-10-17T10:36:59.251Z,21.16
2022-10-17T10:39:28.584Z,21.31
2022-10-17T10:41:55.947Z,21.34
2022-10-17T10:44:26.516Z,21.17
2022-10-17T10:47:08.201Z,21.41
2022-10-17T10:49:42.734Z,21.18
2022-10-17T10:52:23.906Z,21.36
2022-10-17T10:55:16.306Z,21.32
2022-10-17T10:57:47.147Z,21.54
2022-10-17T11:00:23.291Z,21.51
2022-10-17T11:03:25.116Z,21.69
2022-10-17T11:06:02.533Z,21.67
2022-10-17T11:08:50.464Z,21.78
2022-10-17T11:11:33.684Z,21.56
2022-10-17T11:14:25.660Z,21.69
2022-10-17T11:16:59.764Z,21.93
2022-10-17T11:19:44.678Z,21.84
2022-10-17T11:22:16.424Z,21.82
2022-10-17T11:24:57.004Z,21.93
2022-10-17T11:27:25.184Z,21.99
2022-10-17T11:29:52.205Z,21.76
2022-10-17T11:32:44.133Z,21.92
2022-10-17T11:35:29.061Z,21.74
2022-10-17T11:38:08.161Z,21.76
2022-10-17T11:40:39.476Z,21.73
2022-10-17T11:43:15.473Z,21.87
2022-10-17T11:45:52.846Z,21.99
2022-10-17T11:49:01.892Z,21.99
2022-10-17T11:54:38.158Z,22.17
2022-10-17T11:57:14.913Z,22.13
2022-10-17T12:00:00.787Z,22.18
2022-10-17T12:02:38.083Z,22.00
2022-10-17T12:05:22.328Z,22.03
2022-10-17T12:08:03.031Z,22.08
2022-10-17T12:10:42.380Z,22.14
2022-10-17T12:13:29.421Z,22.19
2022-10-17T12:15:58.673Z,22.10
2022-10-17T12:18:29.511Z,22.02
2022-10-17T12:20:58.723Z,21.99
2022-10-17T12:23:30.572Z,22.01
2022-10-17T12:26:04.863Z,22.05
2022-10-17T12:28:39.293Z,22.07
2022-10-17T12:31:15.747Z,22.02
2022-10-17T12:33:48.449Z,22.14
2022-10-17T12:36:18.764Z,22.20
2022-10-17T12:38:49.924Z,22.21
2022-10-17T12:41:40.455Z,22.10
2022-10-17T12:44:13.714Z,22.16
2022-10-17T12:46:45.833Z,22.16
2022-10-17T12:49:42.386Z,22.13
2022-10-17T12:52:26.772Z,22.01
2022-10-17T12:55:12.973Z,22.07
2022-10-17T12:58:04.031Z,22.05
2022-10-17T13:01:11.783Z,22.00
2022-10-17T13:03:53.416Z,22.07
2022-10-17T13:06:24.894Z,22.06
2022-10-17T13:09:03.916Z,22.01
2022-10-17T13:11:35.528Z,22.05
2022-10-17T13:14:09.135Z,22.04
2022-10-17T13:16:43.761Z,21.93
2022-10-17T13:19:16.687Z,21.98
2022-10-17T13:21:51.781Z,22.02
2022-10-17T13:24:23.236Z,22.04
2022-10-17T13:26:50.476Z,22.08
2022-10-17T13:29:18.178Z,22.09
2022-10-17T13:31:45.285Z,22.12
2022-10-17T13:34:24.897Z,22.05
2022-10-17T13:36:58.197Z,22.09
2022-10-17T13:39:44.839Z,22.13
2022-10-17T13:42:27.702Z,22.08
2022-10-17T13:44:55.958Z,22.10
2022-10-17T13:47:25.594Z,22.12
2022-10-17T13:49:55.513Z,22.16
2022-10-17T13:52:27.430Z,22.14
2022-10-17T13:54:56.589Z,22.09
2022-10-17T13:57:27.469Z,22.10
2022-10-17T13:59:59.537Z,22.05
2022-10-17T14:02:29.071Z,22.04
2022-10-17T14:05:17.134Z,21.98
2022-10-17T14:08:09.910Z,21.94
2022-10-17T14:10:35.468Z,21.93
2022-10-17T14:13:10.294Z,21.86
2022-10-17T14:15:37.707Z,21.89
2022-10-17T14:18:08.353Z,21.87
2022-10-17T14:23:41.962Z,21.80
2022-10-17T14:26:37.050Z,21.72
2022-10-17T14:29:07.353Z,21.67
2022-10-17T14:31:37.094Z,21.56
2022-10-17T14:34:07.223Z,21.57
2022-10-17T14:36:42.314Z,21.52
2022-10-17T14:39:21.109Z,21.49
2022-10-17T14:41:49.671Z,21.48
2022-10-17T14:44:27.088Z,21.39
2022-10-17T14:47:06.016Z,21.33
2022-10-17T14:49:42.699Z,21.25
2022-10-17T14:52:14.897Z,21.18
2022-10-17T14:54:46.788Z,21.14
2022-10-17T14:57:23.397Z,21.05
2022-10-17T14:59:54.204Z,21.00
2022-10-17T15:02:25.993Z,21.04
2022-10-17T15:04:53.468Z,21.01
2022-10-17T15:07:21.434Z,20.89
2022-10-17T15:09:52.625Z,20.81
2022-10-17T15:12:23.326Z,20.74
2022-10-17T15:14:51.674Z,20.70
2022-10-17T15:17:25.716Z,20.66
2022-10-17T15:19:52.812Z,20.63
2022-10-17T15:22:19.989Z,20.58
2022-10-17T15:24:47.065Z,20.61
2022-10-17T15:27:19.908Z,20.52
2022-10-17T15:29:47.742Z,20.47
2022-10-17T15:32:17.141Z,20.37
2022-10-17T15:34:44.569Z,20.24
2022-10-17T15:37:22.144Z,20.21
2022-10-17T15:39:54.905Z,20.11
2022-10-17T15:42:28.053Z,20.07
2022-10-17T15:44:58.284Z,20.05
2022-10-17T15:47:29.679Z,20.13
2022-10-17T15:49:57.245Z,20.07
2022-10-17T15:52:24.903Z,19.95
2022-10-17T15:54:52.389Z,19.86
2022-10-17T15:57:22.761Z,19.88
2022-10-17T15:59:51.674Z,19.74
2022-10-17T16:02:21.081Z,19.74
2022-10-17T16:04:49.471Z,19.76
2022-10-17T16:07:17.544Z,19.67
2022-10-17T16:09:45.598Z,19.61
2022-10-17T16:12:30.229Z,19.50
2022-10-17T16:14:57.436Z,19.50
2022-10-17T16:17:24.606Z,19.52
2022-10-17T16:19:51.561Z,19.56
2022-10-17T16:22:32.424Z,19.47
2022-10-17T16:25:09.549Z,19.37
2022-10-17T16:27:39.861Z,19.27
2022-10-17T16:30:08.347Z,19.25
2022-10-17T16:32:35.556Z,19.26
2022-10-17T16:35:04.836Z,19.24
2022-10-17T16:37:32.436Z,19.23
2022-10-17T16:40:00.684Z,19.20
2022-10-17T16:42:28.301Z,19.23
2022-10-17T16:44:55.439Z,19.17
2022-10-17T16:47:22.673Z,19.15
2022-10-17T16:49:50.589Z,19.10
2022-10-17T16:52:17.683Z,19.04
2022-10-17T16:54:44.633Z,18.94
2022-10-17T16:57:11.745Z,18.88
2022-10-17T16:59:39.659Z,18.87
2022-10-17T17:02:07.664Z,18.93
2022-10-17T17:04:35.317Z,18.88
2022-10-17T17:07:03.114Z,18.78
2022-10-17T17:09:30.270Z,18.62
2022-10-17T17:11:57.915Z,18.62
2022-10-17T17:14:26.610Z,18.52
2022-10-17T17:16:54.072Z,18.53
2022-10-17T17:19:27.050Z,18.46
2022-10-17T17:21:57.428Z,18.45
2022-10-17T17:24:26.363Z,18.46
2022-10-17T17:26:56.014Z,18.39
2022-10-17T17:29:24.722Z,18.33
2022-10-17T17:31:53.336Z,18.43
2022-10-17T17:34:20.761Z,18.41
2022-10-17T17:36:49.005Z,18.33
2022-10-17T17:39:16.956Z,18.32
2022-10-17T17:41:47.728Z,18.20
2022-10-17T17:44:16.876Z,18.32
2022-10-17T17:46:48.427Z,18.31
2022-10-17T17:49:16.213Z,18.32
2022-10-17T17:51:46.844Z,18.25
2022-10-17T17:54:15.670Z,18.21
2022-10-17T17:56:44.152Z,18.15
2022-10-17T17:59:15.255Z,18.12
2022-10-17T18:01:43.961Z,18.09
2022-10-17T18:04:12.356Z,18.04
2022-10-17T18:06:43.655Z,18.00
2022-10-17T18:09:11.452Z,18.01
2022-10-17T18:11:39.194Z,17.93
2022-10-17T18:14:13.234Z,18.02
2022-10-17T18:16:44.576Z,17.86
2022-10-17T18:19:12.782Z,17.96
2022-10-17T18:21:41.605Z,17.86
2022-10-17T18:24:11.962Z,17.81
2022-10-17T18:26:40.639Z,17.76
2022-10-17T18:29:09.021Z,17.84
2022-10-17T18:31:41.608Z,17.73
2022-10-17T18:34:11.702Z,17.73
2022-10-17T18:36:42.296Z,17.66
2022-10-17T18:39:09.913Z,17.58
2022-10-17T18:41:38.357Z,17.58
2022-10-17T18:44:07.787Z,17.59
2022-10-17T18:46:40.810Z,17.71
2022-10-17T18:49:10.656Z,17.60
2022-10-17T18:51:39.657Z,17.59
2022-10-17T18:54:13.009Z,17.58
2022-10-17T18:56:42.761Z,17.52
2022-10-17T18:59:11.230Z,17.46
2022-10-17T19:01:40.156Z,17.38
2022-10-17T19:04:08.541Z,17.42
2022-10-17T19:06:37.781Z,17.48
2022-10-17T19:09:08.078Z,17.50
2022-10-17T19:11:36.805Z,17.37
2022-10-17T19:14:14.253Z,17.32
2022-10-17T19:16:45.291Z,17.36
2022-10-17T19:19:14.778Z,17.37
2022-10-17T19:21:43.645Z,17.29
2022-10-17T19:24:16.896Z,17.21
2022-10-17T19:26:46.437Z,17.12
2022-10-17T19:29:15.405Z,17.18
2022-10-17T19:31:43.765Z,17.09
2022-10-17T19:34:14.826Z,17.17
2022-10-17T19:36:43.732Z,17.12
2022-10-17T19:39:20.326Z,17.16
2022-10-17T19:41:48.546Z,17.08
2022-10-17T19:44:16.935Z,17.13
2022-10-17T19:46:47.162Z,17.07
2022-10-17T19:49:15.873Z,17.09
2022-10-17T19:51:44.569Z,17.09
2022-10-17T19:54:15.465Z,17.05
2022-10-17T19:56:49.067Z,17.10
2022-10-17T19:59:20.104Z,17.08
2022-10-17T20:01:48.263Z,17.06
2022-10-17T20:04:15.898Z,17.18
2022-10-17T20:06:43.769Z,17.17
2022-10-17T20:09:17.047Z,17.11
2022-10-17T20:11:50.155Z,17.11
2022-10-17T20:14:19.590Z,17.07
2022-10-17T20:16:51.246Z,17.07
2022-10-17T20:19:19.826Z,17.04
2022-10-17T20:21:47.784Z,17.01
2022-10-17T20:24:16.803Z,16.97
2022-10-17T20:26:45.680Z,17.02
2022-10-17T20:29:19.916Z,16.88
2022-10-17T20:31:50.341Z,16.76
2022-10-17T20:34:19.075Z,16.82
2022-10-17T20:36:47.503Z,16.80
2022-10-17T20:39:16.148Z,16.75
2022-10-17T20:41:44.682Z,16.83
2022-10-17T20:44:14.601Z,16.82
2022-10-17T20:46:48.678Z,16.66
2022-10-17T20:49:20.682Z,16.52
2022-10-17T20:51:47.795Z,16.47
2022-10-17T20:54:14.794Z,16.41
2022-10-17T20:56:42.104Z,16.25
2022-10-17T20:59:14.424Z,16.18
2022-10-17T21:01:42.247Z,15.97
2022-10-17T21:04:43.966Z,15.75
2022-10-17T21:06:56.693Z,15.48
2022-10-17T21:09:24.149Z,15.32
2022-10-17T21:11:55.059Z,15.15
2022-10-17T21:14:23.503Z,15.14
2022-10-17T21:16:52.377Z,15.08
2022-10-17T21:19:22.073Z,14.94
2022-10-17T21:21:49.835Z,14.89
2022-10-17T21:24:19.462Z,14.80
2022-10-17T21:26:50.086Z,14.73
2022-10-17T21:29:16.992Z,14.58
2022-10-17T21:31:45.340Z,14.51
2022-10-17T21:34:18.534Z,14.45
2022-10-17T21:36:48.290Z,14.45
2022-10-17T21:39:17.386Z,14.37
2022-10-17T21:41:45.500Z,14.30
2022-10-17T21:44:15.831Z,14.11
2022-10-17T21:46:43.295Z,13.95
2022-10-17T21:49:19.466Z,13.87
2022-10-17T21:51:50.447Z,13.77
2022-10-17T21:54:19.669Z,13.77
2022-10-17T21:56:46.966Z,13.76
2022-10-17T21:59:13.962Z,13.67
2022-10-17T22:01:45.776Z,13.68
2022-10-17T22:04:16.259Z,13.58
2022-10-17T22:06:45.591Z,13.51
2022-10-17T22:09:16.368Z,13.46
2022-10-17T22:11:49.036Z,13.38
2022-10-17T22:14:19.986Z,13.33
2022-10-17T22:16:48.214Z,13.26
2022-10-17T22:19:21.200Z,13.16
2022-10-17T22:21:49.131Z,13.09
2022-10-17T22:24:18.563Z,13.06
2022-10-17T22:26:46.621Z,12.96
2022-10-17T22:29:14.166Z,12.88
2022-10-17T22:31:41.668Z,12.81
2022-10-17T22:34:11.092Z,12.69
2022-10-17T22:36:38.249Z,12.62
2022-10-17T22:39:05.205Z,12.60
2022-10-17T22:41:32.869Z,12.56
2022-10-17T22:44:00.230Z,12.58
2022-10-17T22:46:30.095Z,12.68
2022-10-17T22:48:59.401Z,12.69
2022-10-17T22:51:26.924Z,12.74
2022-10-17T22:53:56.724Z,12.69
2022-10-17T22:56:23.890Z,12.70
2022-10-17T22:58:51.814Z,12.68
2022-10-17T23:01:22.278Z,12.70
2022-10-17T23:03:50.474Z,12.74
2022-10-17T23:06:18.430Z,12.70
2022-10-17T23:08:45.956Z,12.72
2022-10-17T23:11:13.063Z,12.71
2022-10-17T23:13:41.045Z,12.67
2022-10-17T23:16:09.294Z,12.67
2022-10-17T23:18:38.063Z,12.66
2022-10-17T23:21:05.876Z,12.70
2022-10-17T23:23:32.802Z,12.65
2022-10-17T23:26:10.378Z,12.67
2022-10-17T23:28:38.371Z,12.64
2022-10-17T23:31:17.379Z,12.68
2022-10-17T23:33:46.012Z,12.66
2022-10-17T23:36:15.169Z,12.66
2022-10-17T23:38:45.545Z,12.72
2022-10-17T23:41:13.246Z,12.63
2022-10-17T23:43:44.122Z,12.53
2022-10-17T23:46:12.182Z,12.37
2022-10-17T23:48:40.167Z,12.25
2022-10-17T23:51:10.895Z,12.15
2022-10-17T23:53:38.693Z,12.04
2022-10-17T23:56:07.818Z,11.94
2022-10-17T23:58:37.846Z,11.85
